Buena Vista, CO

12:08 PM MDT on September 30, 2016 (GMT -0600)
Kettering Residence | | Change Station

Elev 8035 ft 38.84 °N, 106.15 °W | Updated 15 seconds ago

Scattered Clouds
Scattered Clouds
64.4 °F
Feels Like 64.4 °F
N
5.6
Wind Variable Wind from WSW
Gusts 7.4 mph

Today
High -- | Low -- °F
--% Chance of Precip.
Yesterday
High -- | Low -- °F
Precip. -- in
Pressure 30.37 in
Visibility 10.0 miles
Clouds Scattered Clouds 5500 ft
Dew Point 39 °F
Humidity 39%
Rainfall 0.00 in
Snow Depth Not available.
7:00 AM 6:48 PM
Waning Crescent, 0% visible
METAR KAEJ 301755Z AUTO 27005KT 10SM SCT055 19/02 A3037 RMK AO2 T01870022 10187 20090
Pressure 30.37 in
Visibility 10.0 miles
Clouds Scattered Clouds 5500 ft
Dew Point 39 °F
Humidity 39%
Rainfall 0.00 in
Snow Depth Not available.
7:00 AM 6:48 PM
Waning Crescent, 0% visible
METAR KAEJ 301755Z AUTO 27005KT 10SM SCT055 19/02 A3037 RMK AO2 T01870022 10187 20090

10-Day Weather Forecast

Almanac

Astronomy

Sep. 30, 2016 Rise Set
Actual Time
Civil Twilight
Nautical Twilight
Astronomical Twilight
Moon
Length of Visible Light
Length of Day
Tomorrow will be .
, % of the Moon is Illuminated

Today's Extremes

State Highs State Lows

Community

WunderPhotos

Upload Photos

1,942,760 photos uploaded!

WunderBlog® & News

Nearby

Air Quality

  Air Quality AQ Index Pollutant
Not available.

Snow Depth

Station Depth Elevation

Earthquake Activity

City Distance Mag. Time & Date
Minimum magnitude displayed is 2.5.

Coastal Water Temperatures

Place Temperature

Stations

Nearby Weather Stations

Station Location Temp. Windchill Dew Point Humidity Wind Precip. Elev Updated Type
                   

Watches & Warnings

There are currently no watches in effect.